Time;durP1;ratioP1;P1;durP2;ratioP2;P2;SDS_P1;SDS_P2;PMS_P1;PMS_P2;Temp;Humidity;BMP_temperature;BMP_pressure;BME280_temperature;BME280_humidity;BME280_pressure;Samples;Min_cycle;Max_cycle;Signal;HPM_P1;HPM_P2
2024/03/21 00:00:15;;;;;;;194.90;117.90;;;;;;;5.68;59.28;100894.44;111049;1256;23596;-71
2024/03/21 00:03:04;;;;;;;182.00;117.80;;;;;;;5.62;59.55;100892.60;111008;1257;22731;-70
2024/03/21 00:05:32;;;;;;;181.00;121.80;;;;;;;5.60;59.74;100891.29;110971;1257;23604;-72
2024/03/21 00:08:02;;;;;;;191.40;122.50;;;;;;;5.58;59.67;100887.17;110966;1257;21969;-70
2024/03/21 00:10:30;;;;;;;190.00;125.40;;;;;;;5.58;59.57;100888.59;110962;1257;22348;-70
2024/03/21 00:12:59;;;;;;;184.20;121.20;;;;;;;5.56;59.49;100884.11;111023;1257;22389;-70
2024/03/21 00:15:31;;;;;;;175.60;120.80;;;;;;;5.52;59.33;100877.64;111004;1257;21981;-70
2024/03/21 00:18:00;;;;;;;188.00;122.30;;;;;;;5.49;59.48;100878.81;111037;1251;23585;-72
2024/03/21 00:20:31;;;;;;;201.80;126.30;;;;;;;5.45;59.61;100878.94;111007;1251;23113;-70
2024/03/21 00:23:00;;;;;;;205.60;135.00;;;;;;;5.44;59.38;100876.36;110771;1249;23020;-70
2024/03/21 00:25:29;;;;;;;187.60;124.20;;;;;;;5.42;59.71;100873.84;110773;1247;21985;-71
2024/03/21 00:27:58;;;;;;;181.20;120.30;;;;;;;5.36;59.87;100873.90;110829;1257;23688;-71
2024/03/21 00:30:27;;;;;;;168.90;118.10;;;;;;;5.30;60.21;100879.23;110707;1257;21969;-71
2024/03/21 00:32:56;;;;;;;191.00;126.90;;;;;;;5.25;60.29;100879.95;111006;1257;23679;-73
2024/03/21 00:35:28;;;;;;;161.40;115.40;;;;;;;5.18;60.17;100879.36;111018;1257;22082;-73
2024/03/21 00:38:00;;;;;;;168.50;119.40;;;;;;;5.10;60.22;100877.91;110983;1257;22936;-72
2024/03/21 00:40:29;;;;;;;;;;;;;;;5.05;60.40;100881.09;111014;1257;22014;-72
2024/03/21 00:42:57;;;;;;;185.00;121.00;;;;;;;4.93;60.94;100879.09;111044;1257;21999;-72
2024/03/21 00:45:29;;;;;;;191.40;127.10;;;;;;;4.91;60.88;100877.60;111015;1257;23766;-72
2024/03/21 00:48:00;;;;;;;170.80;116.80;;;;;;;4.91;60.98;100876.52;111052;1257;21959;-73
2024/03/21 00:50:32;;;;;;;193.00;127.90;;;;;;;4.91;60.98;100873.23;110997;1257;23040;-73
2024/03/21 00:53:05;;;;;;;184.90;126.40;;;;;;;4.89;61.11;100873.49;111057;1256;22008;-72
2024/03/21 00:55:37;;;;;;;187.40;127.80;;;;;;;4.83;61.43;100871.08;111041;1257;21973;-71
2024/03/21 00:58:06;;;;;;;191.70;127.50;;;;;;;4.81;61.57;100870.13;110698;1257;23693;-71
2024/03/21 01:00:38;;;;;;;190.20;128.50;;;;;;;4.79;61.90;100868.61;111033;1257;22949;-72
2024/03/21 01:03:09;;;;;;;198.80;127.60;;;;;;;4.78;61.99;100870.92;111013;1257;21952;-70
2024/03/21 01:05:38;;;;;;;186.90;121.80;;;;;;;4.75;61.83;100869.14;111033;1257;21961;-70
2024/03/21 01:08:07;;;;;;;177.20;125.10;;;;;;;4.69;61.92;100866.73;111030;1257;21959;-70
2024/03/21 01:10:35;;;;;;;170.80;117.30;;;;;;;4.65;61.99;100867.60;111021;1257;21971;-70
2024/03/21 01:13:04;;;;;;;167.90;119.10;;;;;;;4.61;62.18;100865.83;111013;1246;22768;-71
2024/03/21 01:15:36;;;;;;;171.90;115.80;;;;;;;4.58;62.22;100865.59;110980;1257;23686;-71
2024/03/21 01:18:07;;;;;;;164.90;117.50;;;;;;;4.57;62.16;100865.61;110818;1257;22201;-69
2024/03/21 01:20:39;;;;;;;172.40;121.30;;;;;;;4.59;62.44;100863.65;110989;1257;21983;-70
2024/03/21 01:23:09;;;;;;;175.70;120.40;;;;;;;4.64;62.53;100858.73;110968;1257;21970;-70
2024/03/21 01:25:37;;;;;;;168.20;120.60;;;;;;;4.71;62.57;100858.98;111001;1257;23600;-72
2024/03/21 01:28:06;;;;;;;173.50;120.20;;;;;;;4.77;62.47;100857.36;111003;1257;22002;-70
2024/03/21 01:30:39;;;;;;;168.00;119.50;;;;;;;4.83;62.39;100859.06;111004;1257;21950;-71
2024/03/21 01:33:07;;;;;;;179.30;124.30;;;;;;;4.87;62.46;100862.39;110782;1257;23101;-72
2024/03/21 01:35:36;;;;;;;179.80;124.50;;;;;;;4.91;62.48;100868.69;111003;1257;23578;-71
2024/03/21 01:38:05;;;;;;;180.10;124.00;;;;;;;4.93;62.20;100866.16;111010;1257;22765;-70
2024/03/21 01:40:35;;;;;;;180.40;125.60;;;;;;;4.95;62.26;100862.60;111013;1257;22133;-70
2024/03/21 01:43:20;;;;;;;172.30;122.90;;;;;;;4.96;62.41;100856.11;111012;1246;21966;-73
2024/03/21 01:46:18;;;;;;;171.90;118.40;;;;;;;4.96;62.16;100856.98;110774;1257;23876;-71
2024/03/21 01:48:55;;;;;;;141.30;101.90;;;;;;;4.95;62.40;100852.98;110836;1257;21963;-71
2024/03/21 01:51:26;;;;;;;153.60;108.30;;;;;;;4.97;62.24;100849.25;110974;1257;22006;-71
2024/03/21 01:53:56;;;;;;;110.30;85.70;;;;;;;4.98;62.30;100846.25;110966;1257;21962;-72
2024/03/21 01:56:31;;;;;;;108.60;83.50;;;;;;;4.97;62.25;100846.12;110940;1257;21967;-71
2024/03/21 01:59:01;;;;;;;111.60;87.80;;;;;;;4.94;62.16;100843.77;110817;1257;22872;-72
2024/03/21 02:01:32;;;;;;;116.00;90.20;;;;;;;4.96;62.23;100844.42;110728;1257;22019;-71
2024/03/21 02:04:03;;;;;;;115.70;89.20;;;;;;;4.98;62.17;100840.52;111022;1255;22005;-72
2024/03/21 02:06:35;;;;;;;107.80;86.50;;;;;;;4.96;62.09;100829.95;111003;1257;21967;-71
2024/03/21 02:09:07;;;;;;;114.40;90.80;;;;;;;4.89;62.09;100823.73;111029;1257;21960;-72
2024/03/21 02:11:36;;;;;;;118.50;89.40;;;;;;;4.83;62.49;100822.77;110997;1257;22439;-72
2024/03/21 02:14:07;;;;;;;108.50;87.00;;;;;;;4.77;62.94;100821.94;111028;1257;21959;-71
2024/03/21 02:16:35;;;;;;;112.80;86.80;;;;;;;4.73;63.06;100819.65;110819;1257;21976;-72
2024/03/21 02:19:04;;;;;;;116.30;89.60;;;;;;;4.68;63.18;100821.94;110736;1257;23570;-72
2024/03/21 02:24:21;;;;;;;115.20;88.30;;;;;;;4.63;63.48;100824.07;110793;1257;23098;-71
2024/03/21 02:26:50;;;;;;;128.90;99.70;;;;;;;4.62;63.42;100824.09;110969;1256;22752;-71
2024/03/21 02:29:19;;;;;;;170.30;125.80;;;;;;;4.61;63.61;100824.48;110984;1255;21966;-71
2024/03/21 02:31:48;;;;;;;117.90;92.70;;;;;;;4.57;63.79;100823.42;110999;1257;21959;-71
2024/03/21 02:34:17;;;;;;;128.40;95.10;;;;;;;4.53;63.59;100822.34;110952;1257;22031;-71
2024/03/21 02:36:46;;;;;;;123.10;88.90;;;;;;;4.48;63.77;100821.13;110991;1257;21964;-70
2024/03/21 02:39:15;;;;;;;122.70;93.40;;;;;;;4.42;63.74;100821.54;110764;1257;24378;-71
2024/03/21 02:41:44;;;;;;;116.80;90.00;;;;;;;4.35;63.93;100821.61;110960;1257;21964;-71
2024/03/21 02:44:12;;;;;;;114.80;89.10;;;;;;;4.30;64.12;100827.05;111013;1257;23064;-71
2024/03/21 02:46:41;;;;;;;114.80;85.90;;;;;;;4.24;64.34;100827.27;110708;1257;21971;-71
2024/03/21 02:49:10;;;;;;;116.10;86.20;;;;;;;4.21;64.27;100828.40;111002;1257;21967;-72
2024/03/21 02:51:39;;;;;;;117.60;87.90;;;;;;;4.24;64.15;100830.93;110805;1257;21968;-71
2024/03/21 02:54:08;;;;;;;112.10;84.00;;;;;;;4.27;64.16;100829.23;110787;1257;23679;-71
2024/03/21 02:56:37;;;;;;;113.60;86.20;;;;;;;4.33;64.14;100831.46;110810;1257;23481;-71
2024/03/21 02:59:06;;;;;;;113.90;84.80;;;;;;;4.37;63.92;100834.96;110969;1257;22000;-71
2024/03/21 03:01:35;;;;;;;111.70;85.20;;;;;;;4.40;63.88;100836.59;110830;1253;21992;-72
2024/03/21 03:04:04;;;;;;;101.30;83.80;;;;;;;4.47;64.08;100831.63;111020;1257;23065;-72
2024/03/21 03:06:33;;;;;;;108.90;85.40;;;;;;;4.55;63.78;100824.54;110858;1257;21959;-71
2024/03/21 03:09:02;;;;;;;103.30;81.50;;;;;;;4.62;63.57;100820.94;111006;1257;22748;-70
2024/03/21 03:11:31;;;;;;;104.90;82.90;;;;;;;4.60;63.62;100816.31;110996;1257;22057;-71
2024/03/21 03:13:59;;;;;;;101.00;81.00;;;;;;;4.54;63.59;100813.23;110993;1257;23102;-71
2024/03/21 03:16:28;;;;;;;106.20;82.10;;;;;;;4.49;63.91;100812.55;110713;1257;23803;-71
2024/03/21 03:18:57;;;;;;;108.70;86.00;;;;;;;4.45;63.79;100814.96;111018;1257;21967;-70
2024/03/21 03:21:25;;;;;;;112.60;86.40;;;;;;;4.42;63.97;100814.73;111097;1257;21968;-72
2024/03/21 03:23:55;;;;;;;114.20;86.60;;;;;;;4.41;64.11;100816.48;111015;1257;23757;-71
2024/03/21 03:26:24;;;;;;;105.00;86.40;;;;;;;4.45;64.15;100816.90;110856;1257;23579;-72
2024/03/21 03:28:52;;;;;;;106.80;84.00;;;;;;;4.50;64.16;100820.20;110746;1257;22743;-72
2024/03/21 03:31:21;;;;;;;110.80;85.00;;;;;;;4.58;64.07;100825.48;110992;1257;21964;-71
2024/03/21 03:36:37;;;;;;;113.40;86.30;;;;;;;4.70;64.21;100832.54;110850;1257;21973;-72
2024/03/21 03:39:06;;;;;;;112.70;86.90;;;;;;;4.75;64.04;100828.84;110668;1257;166888;-72
2024/03/21 03:41:35;;;;;;;115.00;88.10;;;;;;;4.80;63.83;100834.02;110667;1257;24407;-72
2024/03/21 03:44:05;;;;;;;116.90;90.40;;;;;;;4.80;63.88;100833.18;111016;1257;22000;-71
2024/03/21 03:46:34;;;;;;;119.70;89.70;;;;;;;4.78;64.11;100835.69;110984;1257;21970;-71
2024/03/21 03:49:02;;;;;;;118.20;90.00;;;;;;;4.72;64.15;100831.93;110974;1257;21978;-72
2024/03/21 03:51:31;;;;;;;112.80;90.60;;;;;;;4.59;64.69;100825.44;110998;1257;22139;-71
2024/03/21 03:54:00;;;;;;;118.20;90.90;;;;;;;4.43;65.29;100819.04;111028;1257;21983;-72
2024/03/21 03:56:28;;;;;;;124.50;92.40;;;;;;;4.30;65.75;100819.17;110781;1257;21929;-71
2024/03/21 03:58:57;;;;;;;132.30;95.10;;;;;;;4.23;65.73;100820.13;110961;1257;21961;-71
2024/03/21 04:01:26;;;;;;;123.90;94.20;;;;;;;4.18;66.00;100819.09;111134;1257;23111;-72
2024/03/21 04:03:55;;;;;;;124.60;95.00;;;;;;;4.16;65.93;100821.98;111090;1257;21963;-72
2024/03/21 04:06:24;;;;;;;130.90;99.30;;;;;;;4.15;65.89;100825.85;110809;1257;21973;-72
2024/03/21 04:08:53;;;;;;;125.10;93.80;;;;;;;4.12;66.18;100824.74;111058;1257;22856;-71
2024/03/21 04:11:22;;;;;;;124.60;96.30;;;;;;;4.09;66.39;100826.08;110988;1257;23096;-72
2024/03/21 04:13:51;;;;;;;127.40;95.10;;;;;;;4.07;66.23;100827.52;110819;1257;23155;-73
2024/03/21 04:16:19;;;;;;;132.90;100.30;;;;;;;4.09;66.15;100830.93;110797;1257;23097;-73
2024/03/21 04:18:48;;;;;;;141.60;106.10;;;;;;;4.05;66.37;100826.04;110980;1257;23579;-73
2024/03/21 04:21:17;;;;;;;144.50;111.20;;;;;;;4.02;66.44;100824.35;111034;1257;21969;-73
2024/03/21 04:23:46;;;;;;;167.00;124.90;;;;;;;4.02;66.38;100832.55;110709;1257;22271;-71
2024/03/21 04:26:14;;;;;;;152.20;112.90;;;;;;;4.05;66.51;100837.17;110992;1257;22002;-71
2024/03/21 04:28:44;;;;;;;150.10;108.80;;;;;;;4.12;66.46;100838.67;110783;1257;23702;-71
2024/03/21 04:31:13;;;;;;;143.20;106.70;;;;;;;4.16;66.28;100832.42;110685;1257;22447;-72
2024/03/21 04:33:42;;;;;;;129.70;97.10;;;;;;;4.21;66.20;100830.48;110762;1257;21988;-71
2024/03/21 04:36:11;;;;;;;109.70;85.30;;;;;;;4.24;65.91;100831.80;111017;1257;21981;-71
2024/03/21 04:38:40;;;;;;;108.30;83.70;;;;;;;4.20;65.97;100825.66;110994;1257;21996;-71
2024/03/21 04:41:14;;;;;;;110.90;83.70;;;;;;;4.16;66.10;100822.15;111016;1257;21962;-73
2024/03/21 04:43:43;;;;;;;107.40;85.10;;;;;;;4.13;66.30;100820.67;110978;1257;23592;-70
2024/03/21 04:46:12;;;;;;;103.70;85.60;;;;;;;4.11;66.45;100825.09;110992;1257;23040;-73
2024/03/21 04:48:40;;;;;;;102.70;83.50;;;;;;;4.11;66.76;100825.11;110744;1257;23789;-72
2024/03/21 04:51:09;;;;;;;110.30;85.70;;;;;;;4.12;66.76;100822.80;110996;1257;21974;-72
2024/03/21 04:53:39;;;;;;;110.60;86.50;;;;;;;4.14;66.73;100820.64;111019;1256;22722;-72
2024/03/21 04:56:07;;;;;;;115.20;86.60;;;;;;;4.17;66.60;100820.88;110994;1257;23566;-73
2024/03/21 04:58:36;;;;;;;112.10;88.70;;;;;;;4.20;66.57;100818.16;110997;1257;23788;-72
2024/03/21 05:01:08;;;;;;;113.10;92.10;;;;;;;4.22;66.62;100813.54;110790;1257;23085;-71
2024/03/21 05:03:37;;;;;;;127.20;97.60;;;;;;;4.25;66.75;100811.33;110970;1257;21955;-71
2024/03/21 05:06:06;;;;;;;160.10;117.90;;;;;;;4.29;66.73;100807.70;111048;1257;23573;-71
2024/03/21 05:08:34;;;;;;;118.20;95.10;;;;;;;4.32;66.49;100812.66;110755;1257;21973;-71
2024/03/21 05:11:03;;;;;;;116.70;93.30;;;;;;;4.31;66.31;100814.10;110996;1257;21971;-71
2024/03/21 05:13:32;;;;;;;104.40;86.70;;;;;;;4.28;66.43;100820.81;111012;1257;23653;-73
2024/03/21 05:16:01;;;;;;;115.10;88.30;;;;;;;4.27;66.37;100812.66;110968;1257;21970;-75
2024/03/21 05:18:30;;;;;;;106.60;85.80;;;;;;;4.27;66.45;100814.05;111051;1257;23099;-74
2024/03/21 05:21:00;;;;;;;108.90;86.20;;;;;;;4.29;66.19;100815.91;111033;1257;21972;-75
2024/03/21 05:23:28;;;;;;;105.20;84.70;;;;;;;4.31;66.19;100811.11;111024;1257;22142;-74
2024/03/21 05:25:57;;;;;;;102.60;82.20;;;;;;;4.33;66.07;100808.08;110967;1257;22053;-76
2024/03/21 05:28:27;;;;;;;114.00;87.50;;;;;;;4.35;65.97;100809.75;110745;1257;24388;-75
2024/03/21 05:30:55;;;;;;;106.40;85.00;;;;;;;4.37;65.90;100802.88;110758;1257;21976;-72
2024/03/21 05:33:24;;;;;;;102.30;83.30;;;;;;;4.39;65.82;100801.77;110993;1257;21970;-70
2024/03/21 05:35:53;;;;;;;104.50;85.00;;;;;;;4.41;65.72;100800.61;111005;1257;21965;-69
2024/03/21 05:38:22;;;;;;;107.70;85.40;;;;;;;4.43;65.85;100799.49;110992;1257;22153;-70
2024/03/21 05:40:50;;;;;;;109.60;86.40;;;;;;;4.46;65.57;100800.08;110975;1257;21999;-71
2024/03/21 05:43:21;;;;;;;109.30;85.90;;;;;;;4.49;65.86;100798.25;110996;1257;22430;-70
2024/03/21 05:45:49;;;;;;;100.60;80.20;;;;;;;4.51;65.48;100793.48;111000;1257;23671;-70
2024/03/21 05:48:18;;;;;;;102.10;79.70;;;;;;;4.52;65.55;100789.79;111007;1257;23019;-70
2024/03/21 05:50:47;;;;;;;97.90;78.80;;;;;;;4.54;65.43;100788.98;110744;1257;21968;-70
2024/03/21 05:53:16;;;;;;;97.10;78.00;;;;;;;4.56;65.63;100792.24;110998;1257;21974;-71
2024/03/21 05:56:00;;;;;;;95.90;78.30;;;;;;;4.60;65.50;100791.40;111003;1257;21980;-74
2024/03/21 05:58:29;;;;;;;112.80;86.70;;;;;;;4.63;65.34;100793.52;110961;1257;22036;-73
2024/03/21 06:01:32;;;;;;;121.60;97.60;;;;;;;4.68;65.29;100789.67;111019;1245;23076;-70
2024/03/21 06:03:53;;;;;;;92.30;75.20;;;;;;;4.72;65.33;100792.48;110812;1257;23071;-70
2024/03/21 06:06:21;;;;;;;101.60;76.50;;;;;;;4.79;65.24;100796.77;111016;1257;21968;-71
2024/03/21 06:08:50;;;;;;;92.70;76.60;;;;;;;4.87;65.18;100795.39;110959;1257;21962;-71
2024/03/21 06:11:19;;;;;;;99.60;78.30;;;;;;;4.96;64.80;100793.63;110980;1257;21961;-70
2024/03/21 06:13:49;;;;;;;96.60;74.60;;;;;;;5.02;64.19;100795.84;110983;1257;22037;-70
2024/03/21 06:16:18;;;;;;;100.10;77.40;;;;;;;5.07;63.90;100791.65;110999;1257;23682;-70
2024/03/21 06:18:47;;;;;;;94.40;73.50;;;;;;;5.12;63.79;100793.17;110976;1256;22005;-71
2024/03/21 06:21:16;;;;;;;90.40;73.50;;;;;;;5.20;63.67;100795.29;110981;1257;21949;-70
2024/03/21 06:23:45;;;;;;;93.10;71.90;;;;;;;5.31;63.56;100802.70;110995;1257;23771;-71
2024/03/21 06:26:13;;;;;;;90.70;72.20;;;;;;;5.41;63.52;100798.44;111032;1257;21959;-71
2024/03/21 06:28:42;;;;;;;79.50;69.60;;;;;;;5.52;63.19;100799.94;111002;1257;21971;-71
2024/03/21 06:31:11;;;;;;;81.90;68.00;;;;;;;5.63;62.97;100805.05;110993;1257;23056;-71
2024/03/21 06:33:40;;;;;;;81.60;66.90;;;;;;;5.74;62.71;100804.75;111006;1257;21980;-72
2024/03/21 06:36:09;;;;;;;82.10;67.60;;;;;;;5.83;62.67;100808.89;110973;1257;22114;-73
2024/03/21 06:38:38;;;;;;;99.20;74.30;;;;;;;5.93;62.14;100813.19;111039;1257;23639;-70
2024/03/21 06:41:07;;;;;;;79.50;66.90;;;;;;;6.02;61.76;100815.64;111014;1257;21958;-69
2024/03/21 06:43:35;;;;;;;83.10;67.20;;;;;;;6.09;61.24;100814.10;110971;1257;21977;-69
2024/03/21 06:46:04;;;;;;;83.40;65.80;;;;;;;6.17;60.96;100816.89;110927;1257;21981;-69
2024/03/21 06:48:33;;;;;;;81.40;68.10;;;;;;;6.24;60.48;100822.02;110973;1257;22170;-70
2024/03/21 06:51:07;;;;;;;74.30;65.90;;;;;;;6.26;60.54;100824.52;110973;1257;21979;-70
2024/03/21 06:53:36;;;;;;;74.60;63.60;;;;;;;6.27;60.44;100823.08;111018;1257;23686;-70
2024/03/21 06:56:05;;;;;;;85.80;71.20;;;;;;;6.28;60.12;100822.02;110964;1257;23666;-69
2024/03/21 06:58:35;;;;;;;86.80;74.80;;;;;;;6.32;60.21;100821.13;110998;1257;23776;-69
2024/03/21 07:01:04;;;;;;;93.00;74.20;;;;;;;6.43;60.03;100818.54;110981;1257;21956;-72
2024/03/21 07:03:32;;;;;;;95.00;76.50;;;;;;;6.53;59.92;100820.34;111003;1256;23067;-71
2024/03/21 07:06:01;;;;;;;102.70;81.50;;;;;;;6.64;60.02;100820.38;110804;1257;23484;-70
2024/03/21 07:08:30;;;;;;;90.60;78.60;;;;;;;6.77;59.68;100818.15;111007;1257;21959;-70
2024/03/21 07:10:59;;;;;;;86.30;75.10;;;;;;;6.92;59.30;100820.61;110964;1257;21981;-69
2024/03/21 07:13:28;;;;;;;86.80;74.10;;;;;;;7.05;58.93;100817.17;110768;1257;21971;-70
2024/03/21 07:15:57;;;;;;;89.20;73.80;;;;;;;7.15;58.10;100819.50;111048;1251;21979;-70
2024/03/21 07:18:26;;;;;;;90.30;70.90;;;;;;;7.23;57.77;100821.42;111006;1255;21971;-69
2024/03/21 07:20:56;;;;;;;77.30;66.40;;;;;;;7.31;57.81;100822.98;111022;1257;23036;-70
2024/03/21 07:23:26;;;;;;;81.10;70.50;;;;;;;7.44;57.31;100821.79;110772;1253;22864;-69
2024/03/21 07:25:55;;;;;;;81.20;67.70;;;;;;;7.58;56.43;100816.16;111004;1257;22833;-70
2024/03/21 07:28:27;;;;;;;;;;;;;;;7.69;56.61;100813.70;111004;1257;23612;-70
2024/03/21 07:30:56;;;;;;;73.50;63.10;;;;;;;7.78;57.14;100809.58;110975;1257;21962;-71
2024/03/21 07:33:25;;;;;;;71.10;62.40;;;;;;;7.98;56.66;100813.39;110785;1257;21966;-71
2024/03/21 07:35:57;;;;;;;73.90;61.70;;;;;;;8.22;56.07;100816.02;110768;1257;24781;-69
2024/03/21 07:38:26;;;;;;;79.90;65.80;;;;;;;8.41;55.29;100813.95;111004;1257;22057;-71
2024/03/21 07:41:00;;;;;;;78.00;63.40;;;;;;;8.59;54.65;100811.61;110959;1257;23579;-70
2024/03/21 07:43:31;;;;;;;77.90;63.30;;;;;;;8.72;54.03;100808.95;110982;1257;24441;-69
2024/03/21 07:46:00;;;;;;;76.10;62.90;;;;;;;8.82;53.77;100809.28;110955;1257;22103;-69
2024/03/21 07:48:28;;;;;;;74.50;65.00;;;;;;;8.88;53.47;100812.46;111001;1257;23687;-70
2024/03/21 07:50:57;;;;;;;70.90;61.50;;;;;;;8.98;53.73;100810.35;110992;1257;21993;-73
2024/03/21 07:53:26;;;;;;;74.20;63.30;;;;;;;9.14;53.07;100814.73;111060;1257;23063;-70
2024/03/21 07:55:55;;;;;;;72.10;62.60;;;;;;;9.30;52.86;100811.14;111033;1257;22004;-71
2024/03/21 07:58:24;;;;;;;77.50;64.90;;;;;;;9.50;52.70;100811.77;111021;1257;23702;-70
2024/03/21 08:00:52;;;;;;;70.10;61.30;;;;;;;9.65;52.46;100813.66;110994;1257;21996;-70
2024/03/21 08:03:21;;;;;;;67.50;59.90;;;;;;;9.75;51.88;100812.55;111018;1257;24106;-70
2024/03/21 08:05:52;;;;;;;66.70;58.90;;;;;;;9.82;51.85;100809.73;111058;1257;23577;-71
2024/03/21 08:08:21;;;;;;;72.10;58.60;;;;;;;9.95;51.45;100812.05;111093;1257;21959;-71
2024/03/21 08:10:49;;;;;;;73.60;59.50;;;;;;;10.12;50.48;100814.23;111091;1257;22081;-70
2024/03/21 08:13:18;;;;;;;66.20;57.90;;;;;;;10.31;49.59;100816.23;111201;1257;23361;-70
2024/03/21 08:15:47;;;;;;;68.70;58.70;;;;;;;10.64;49.56;100815.96;111320;1257;22027;-70
2024/03/21 08:18:15;;;;;;;61.10;54.50;;;;;;;10.97;47.92;100809.67;111703;1257;21933;-70
2024/03/21 08:20:47;;;;;;;61.00;53.80;;;;;;;11.25;47.50;100810.27;112540;1257;21987;-71
2024/03/21 08:23:16;;;;;;;62.80;52.60;;;;;;;11.58;47.17;100807.91;112485;1257;21985;-70
2024/03/21 08:25:45;;;;;;;63.40;55.20;;;;;;;11.90;46.15;100806.11;112442;1257;21989;-70
2024/03/21 08:28:14;;;;;;;60.50;50.70;;;;;;;12.24;44.81;100808.77;112390;1257;23717;-71
2024/03/21 08:30:46;;;;;;;61.60;53.40;;;;;;;12.41;44.74;100798.88;112212;1257;21968;-70
2024/03/21 08:33:15;;;;;;;59.30;52.90;;;;;;;12.48;44.57;100800.30;111691;1249;21951;-71
2024/03/21 08:35:44;;;;;;;65.10;53.60;;;;;;;12.53;43.93;100802.96;110987;1257;22913;-68
2024/03/21 08:38:12;;;;;;;56.80;50.70;;;;;;;12.63;44.36;100804.58;111042;1257;22008;-66
2024/03/21 08:40:52;;;;;;;59.10;52.70;;;;;;;12.82;43.41;100806.90;110746;1257;21971;-69
2024/03/21 08:43:22;;;;;;;57.30;51.20;;;;;;;12.83;42.98;100807.59;110838;1257;21949;-68
2024/03/21 08:45:53;;;;;;;57.30;51.20;;;;;;;12.85;43.20;100803.69;111106;1257;22138;-67
2024/03/21 08:48:22;;;;;;;59.10;51.70;;;;;;;13.11;42.37;100803.77;111376;1257;21938;-66
2024/03/21 08:50:51;;;;;;;54.10;47.90;;;;;;;13.47;41.53;100804.48;111094;1257;21990;-67
2024/03/21 08:53:19;;;;;;;51.00;45.60;;;;;;;13.84;41.06;100806.92;111062;1257;23092;-68
2024/03/21 08:55:48;;;;;;;54.80;47.50;;;;;;;14.11;39.66;100806.48;110984;1257;21967;-66
2024/03/21 08:58:17;;;;;;;50.50;45.20;;;;;;;14.39;39.63;100803.06;110977;1257;21955;-66
2024/03/21 09:00:46;;;;;;;47.80;42.60;;;;;;;14.71;39.00;100802.31;110743;1257;22413;-67
2024/03/21 09:03:15;;;;;;;49.00;41.50;;;;;;;15.01;38.06;100803.25;111050;1257;21957;-67
2024/03/21 09:05:43;;;;;;;48.50;40.30;;;;;;;15.23;37.05;100801.30;110788;1257;21972;-70
2024/03/21 09:08:12;;;;;;;46.10;39.00;;;;;;;15.43;36.46;100799.77;110994;1257;22394;-67
2024/03/21 09:10:41;;;;;;;44.30;39.20;;;;;;;15.51;35.99;100798.05;110939;1257;21988;-68
2024/03/21 09:13:10;;;;;;;42.80;38.10;;;;;;;15.49;35.35;100799.84;110773;1257;24114;-70
2024/03/21 09:15:39;;;;;;;44.50;39.50;;;;;;;15.50;35.41;100796.94;110968;1257;22495;-68
2024/03/21 09:18:09;;;;;;;43.20;38.40;;;;;;;15.49;35.93;100795.75;110754;1257;23677;-67
2024/03/21 09:20:38;;;;;;;41.70;36.00;;;;;;;15.49;36.07;100792.41;111079;1257;21959;-68
2024/03/21 09:23:06;;;;;;;40.90;34.40;;;;;;;15.45;34.99;100790.89;110994;1257;23072;-66
2024/03/21 09:25:35;;;;;;;41.30;35.90;;;;;;;15.39;34.91;100788.58;110754;1257;21983;-68
2024/03/21 09:28:14;;;;;;;40.50;35.50;;;;;;;15.32;34.12;100786.86;110987;1257;21964;-67
2024/03/21 09:31:12;;;;;;;42.70;35.60;;;;;;;15.06;34.37;100779.45;110888;1256;22219;-67
2024/03/21 09:33:41;;;;;;;42.20;35.40;;;;;;;15.01;35.14;100775.78;111012;1253;21961;-68
2024/03/21 09:36:09;;;;;;;43.10;38.00;;;;;;;15.13;34.28;100773.02;111022;1257;22203;-68
2024/03/21 09:38:38;;;;;;;42.80;35.90;;;;;;;15.27;33.59;100775.77;111001;1257;21969;-67
2024/03/21 09:41:13;;;;;;;41.40;36.60;;;;;;;15.31;33.15;100770.45;111004;1257;24307;-66
2024/03/21 09:43:43;;;;;;;43.40;36.70;;;;;;;15.37;32.60;100771.39;110774;1257;22935;-67
2024/03/21 09:46:18;;;;;;;45.00;38.60;;;;;;;15.44;32.52;100768.61;111052;1257;23037;-68
2024/03/21 09:48:47;;;;;;;40.30;36.00;;;;;;;15.51;32.73;100763.08;110790;1257;21964;-67
2024/03/21 09:51:26;;;;;;;41.70;37.10;;;;;;;15.61;32.63;100761.20;110710;1257;21960;-69
2024/03/21 09:53:54;;;;;;;44.70;37.60;;;;;;;15.72;32.76;100758.13;110985;1257;22141;-69
2024/03/21 09:56:26;;;;;;;84.20;39.90;;;;;;;15.95;32.36;100757.27;110766;1257;21956;-69
2024/03/21 09:58:55;;;;;;;40.50;36.30;;;;;;;16.11;31.89;100753.77;111020;1257;23032;-71
2024/03/21 10:01:24;;;;;;;42.50;38.00;;;;;;;16.13;31.32;100751.97;110967;1257;23019;-72
2024/03/21 10:03:58;;;;;;;42.20;37.50;;;;;;;16.15;32.35;100748.75;111013;1257;23722;-71
2024/03/21 10:06:27;;;;;;;38.80;34.00;;;;;;;16.21;31.65;100744.88;110659;1257;23032;-70
2024/03/21 10:08:59;;;;;;;37.80;33.80;;;;;;;16.25;31.21;100739.30;110757;1257;22007;-71
2024/03/21 10:11:28;;;;;;;41.00;34.70;;;;;;;16.19;30.88;100738.13;110672;1244;21967;-71
2024/03/21 10:13:59;;;;;;;42.80;36.30;;;;;;;16.13;30.48;100732.25;110734;1256;22740;-71
2024/03/21 10:16:29;;;;;;;42.30;35.40;;;;;;;16.18;30.97;100730.02;111117;1257;22722;-71
2024/03/21 10:19:01;;;;;;;37.40;33.40;;;;;;;16.29;31.14;100727.59;110628;1257;23104;-72
2024/03/21 10:21:30;;;;;;;46.00;37.80;;;;;;;16.37;31.19;100724.39;110782;1257;23493;-71
2024/03/21 10:24:03;;;;;;;37.30;33.40;;;;;;;16.57;31.05;100727.28;110986;1257;22135;-71
2024/03/21 10:26:33;;;;;;;37.90;33.80;;;;;;;16.63;30.17;100726.17;110998;1257;23440;-70
2024/03/21 10:29:03;;;;;;;38.80;34.70;;;;;;;16.69;30.67;100723.40;110969;1257;23595;-71
2024/03/21 10:31:32;;;;;;;38.60;34.40;;;;;;;16.80;30.45;100722.06;111032;1257;21971;-71
2024/03/21 10:34:02;;;;;;;41.40;36.80;;;;;;;16.87;30.41;100722.48;111026;1257;21958;-71
2024/03/21 10:36:31;;;;;;;41.80;37.40;;;;;;;16.92;30.58;100721.14;110783;1253;21996;-71
2024/03/21 10:39:00;;;;;;;38.20;34.10;;;;;;;16.99;30.67;100723.55;110936;1257;23581;-71
2024/03/21 10:41:31;;;;;;;39.80;35.30;;;;;;;17.02;30.38;100720.23;110990;1257;23605;-72
2024/03/21 10:44:08;;;;;;;38.50;34.50;;;;;;;17.00;30.52;100714.68;110755;1257;21961;-70
2024/03/21 10:46:38;;;;;;;40.40;35.50;;;;;;;17.02;30.81;100713.51;111044;1257;21946;-72
2024/03/21 10:49:13;;;;;;;39.80;35.20;;;;;;;17.25;31.10;100713.84;110786;1257;22426;-69
2024/03/21 10:51:45;;;;;;;36.10;32.00;;;;;;;17.53;30.05;100712.45;110773;1257;22029;-70
2024/03/21 10:54:16;;;;;;;36.50;32.60;;;;;;;17.48;29.47;100713.53;110908;1257;22427;-70
2024/03/21 10:56:47;;;;;;;40.00;35.70;;;;;;;17.32;30.08;100709.84;110996;1257;23570;-73
2024/03/21 10:59:16;;;;;;;42.00;36.10;;;;;;;17.12;30.46;100712.71;110675;1257;21962;-70
2024/03/21 11:02:04;;;;;;;41.10;34.70;;;;;;;17.06;30.70;100710.30;108093;1282;544314;-70
2024/03/21 11:04:41;;;;;;;43.10;36.80;;;;;;;16.90;31.00;100712.92;110049;1267;22006;-71
2024/03/21 11:07:17;;;;;;;36.70;32.90;;;;;;;16.98;31.31;100712.23;110150;1267;23120;-72
2024/03/21 11:09:49;;;;;;;38.40;34.20;;;;;;;17.09;31.12;100709.81;110206;1267;22027;-70
2024/03/21 11:12:19;;;;;;;38.90;34.20;;;;;;;17.03;30.81;100708.77;110106;1267;22621;-70
2024/03/21 11:14:48;;;;;;;34.90;31.30;;;;;;;16.83;30.83;100706.83;110075;1265;190463;-71
2024/03/21 11:17:17;;;;;;;35.70;31.90;;;;;;;16.72;31.06;100704.60;110650;1260;23830;-71
2024/03/21 11:19:49;;;;;;;34.80;31.00;;;;;;;16.74;31.27;100703.54;111136;1255;23013;-70